sensor_id;sensor_type;location;lat;lon;timestamp;P1;durP1;ratioP1;P2;durP2;ratioP2
72095;SDS011;59968;51.084;16.748;2024-02-15T00:00:08;15.90;;;7.60;;
72095;SDS011;59968;51.084;16.748;2024-02-15T00:03:01;14.20;;;7.40;;
72095;SDS011;59968;51.084;16.748;2024-02-15T00:05:43;14.20;;;7.60;;
72095;SDS011;59968;51.084;16.748;2024-02-15T00:08:14;14.70;;;7.80;;
72095;SDS011;59968;51.084;16.748;2024-02-15T00:10:43;14.50;;;7.30;;
72095;SDS011;59968;51.084;16.748;2024-02-15T00:13:15;12.90;;;7.20;;
72095;SDS011;59968;51.084;16.748;2024-02-15T00:15:43;13.60;;;7.70;;
72095;SDS011;59968;51.084;16.748;2024-02-15T00:18:14;15.10;;;7.80;;
72095;SDS011;59968;51.084;16.748;2024-02-15T00:20:43;14.70;;;7.70;;
72095;SDS011;59968;51.084;16.748;2024-02-15T00:23:12;13.80;;;8.00;;
72095;SDS011;59968;51.084;16.748;2024-02-15T00:25:41;14.30;;;7.70;;
72095;SDS011;59968;51.084;16.748;2024-02-15T00:28:13;16.40;;;8.00;;
72095;SDS011;59968;51.084;16.748;2024-02-15T00:30:42;13.90;;;7.50;;
72095;SDS011;59968;51.084;16.748;2024-02-15T00:33:14;13.50;;;7.60;;
72095;SDS011;59968;51.084;16.748;2024-02-15T00:35:43;14.90;;;7.90;;
72095;SDS011;59968;51.084;16.748;2024-02-15T00:38:12;14.00;;;7.70;;
72095;SDS011;59968;51.084;16.748;2024-02-15T00:40:40;14.80;;;7.50;;
72095;SDS011;59968;51.084;16.748;2024-02-15T00:43:09;14.00;;;7.50;;
72095;SDS011;59968;51.084;16.748;2024-02-15T00:45:39;12.30;;;7.90;;
72095;SDS011;59968;51.084;16.748;2024-02-15T00:48:10;14.90;;;8.10;;
72095;SDS011;59968;51.084;16.748;2024-02-15T00:50:40;11.90;;;7.00;;
72095;SDS011;59968;51.084;16.748;2024-02-15T00:53:10;14.20;;;7.60;;
72095;SDS011;59968;51.084;16.748;2024-02-15T00:55:39;14.70;;;8.00;;
72095;SDS011;59968;51.084;16.748;2024-02-15T00:58:08;15.70;;;8.80;;
72095;SDS011;59968;51.084;16.748;2024-02-15T01:00:36;15.40;;;7.90;;
72095;SDS011;59968;51.084;16.748;2024-02-15T01:03:08;15.60;;;8.00;;
72095;SDS011;59968;51.084;16.748;2024-02-15T01:05:37;13.90;;;7.80;;
72095;SDS011;59968;51.084;16.748;2024-02-15T01:08:06;15.90;;;8.20;;
72095;SDS011;59968;51.084;16.748;2024-02-15T01:10:39;14.40;;;8.80;;
72095;SDS011;59968;51.084;16.748;2024-02-15T01:13:08;13.30;;;7.90;;
72095;SDS011;59968;51.084;16.748;2024-02-15T01:15:37;13.40;;;8.00;;
72095;SDS011;59968;51.084;16.748;2024-02-15T01:18:09;13.50;;;7.90;;
72095;SDS011;59968;51.084;16.748;2024-02-15T01:20:42;13.90;;;7.70;;
72095;SDS011;59968;51.084;16.748;2024-02-15T01:23:11;16.40;;;8.20;;
72095;SDS011;59968;51.084;16.748;2024-02-15T01:25:39;12.20;;;7.30;;
72095;SDS011;59968;51.084;16.748;2024-02-15T01:28:11;17.50;;;8.30;;
72095;SDS011;59968;51.084;16.748;2024-02-15T01:30:43;14.50;;;7.70;;
72095;SDS011;59968;51.084;16.748;2024-02-15T01:33:12;12.90;;;7.50;;
72095;SDS011;59968;51.084;16.748;2024-02-15T01:35:44;13.70;;;7.40;;
72095;SDS011;59968;51.084;16.748;2024-02-15T01:38:13;15.20;;;7.50;;
72095;SDS011;59968;51.084;16.748;2024-02-15T01:40:42;12.90;;;6.90;;
72095;SDS011;59968;51.084;16.748;2024-02-15T01:43:11;16.10;;;8.10;;
72095;SDS011;59968;51.084;16.748;2024-02-15T01:45:39;13.00;;;7.00;;
72095;SDS011;59968;51.084;16.748;2024-02-15T01:48:09;13.70;;;7.20;;
72095;SDS011;59968;51.084;16.748;2024-02-15T01:50:39;11.60;;;6.80;;
72095;SDS011;59968;51.084;16.748;2024-02-15T01:53:08;12.10;;;6.80;;
72095;SDS011;59968;51.084;16.748;2024-02-15T01:55:39;11.40;;;6.60;;
72095;SDS011;59968;51.084;16.748;2024-02-15T01:58:08;10.80;;;6.00;;
72095;SDS011;59968;51.084;16.748;2024-02-15T02:00:40;11.40;;;6.60;;
72095;SDS011;59968;51.084;16.748;2024-02-15T02:03:09;12.10;;;6.20;;
72095;SDS011;59968;51.084;16.748;2024-02-15T02:05:42;11.50;;;6.10;;
72095;SDS011;59968;51.084;16.748;2024-02-15T02:08:11;12.30;;;6.50;;
72095;SDS011;59968;51.084;16.748;2024-02-15T02:10:39;10.80;;;6.30;;
72095;SDS011;59968;51.084;16.748;2024-02-15T02:13:09;13.00;;;6.60;;
72095;SDS011;59968;51.084;16.748;2024-02-15T02:15:38;11.10;;;6.80;;
72095;SDS011;59968;51.084;16.748;2024-02-15T02:18:07;13.90;;;7.50;;
72095;SDS011;59968;51.084;16.748;2024-02-15T02:20:39;13.50;;;7.10;;
72095;SDS011;59968;51.084;16.748;2024-02-15T02:23:14;13.60;;;7.40;;
72095;SDS011;59968;51.084;16.748;2024-02-15T02:25:44;12.50;;;7.40;;
72095;SDS011;59968;51.084;16.748;2024-02-15T02:28:14;13.90;;;7.60;;
72095;SDS011;59968;51.084;16.748;2024-02-15T02:30:46;13.80;;;7.50;;
72095;SDS011;59968;51.084;16.748;2024-02-15T02:33:18;13.50;;;7.40;;
72095;SDS011;59968;51.084;16.748;2024-02-15T02:35:51;13.60;;;6.80;;
72095;SDS011;59968;51.084;16.748;2024-02-15T02:38:20;12.80;;;7.50;;
72095;SDS011;59968;51.084;16.748;2024-02-15T02:40:49;14.40;;;7.10;;
72095;SDS011;59968;51.084;16.748;2024-02-15T02:43:17;12.50;;;7.40;;
72095;SDS011;59968;51.084;16.748;2024-02-15T02:45:46;14.20;;;7.20;;
72095;SDS011;59968;51.084;16.748;2024-02-15T02:48:15;11.70;;;7.00;;
72095;SDS011;59968;51.084;16.748;2024-02-15T02:50:48;13.60;;;7.70;;
72095;SDS011;59968;51.084;16.748;2024-02-15T02:53:20;14.20;;;7.80;;
72095;SDS011;59968;51.084;16.748;2024-02-15T02:55:49;11.30;;;6.20;;
72095;SDS011;59968;51.084;16.748;2024-02-15T02:58:22;12.00;;;6.70;;
72095;SDS011;59968;51.084;16.748;2024-02-15T03:00:52;11.50;;;6.80;;
72095;SDS011;59968;51.084;16.748;2024-02-15T03:03:24;12.90;;;6.80;;
72095;SDS011;59968;51.084;16.748;2024-02-15T03:05:59;12.30;;;6.70;;
72095;SDS011;59968;51.084;16.748;2024-02-15T03:08:28;10.10;;;6.10;;
72095;SDS011;59968;51.084;16.748;2024-02-15T03:11:07;11.70;;;6.10;;
72095;SDS011;59968;51.084;16.748;2024-02-15T03:13:35;10.10;;;6.60;;
72095;SDS011;59968;51.084;16.748;2024-02-15T03:16:04;11.10;;;6.50;;
72095;SDS011;59968;51.084;16.748;2024-02-15T03:18:33;10.30;;;6.00;;
72095;SDS011;59968;51.084;16.748;2024-02-15T03:21:02;12.20;;;6.10;;
72095;SDS011;59968;51.084;16.748;2024-02-15T03:23:32;11.40;;;6.20;;
72095;SDS011;59968;51.084;16.748;2024-02-15T03:26:01;11.10;;;6.10;;
72095;SDS011;59968;51.084;16.748;2024-02-15T03:28:32;10.20;;;6.40;;
72095;SDS011;59968;51.084;16.748;2024-02-15T03:31:03;9.90;;;5.90;;
72095;SDS011;59968;51.084;16.748;2024-02-15T03:33:31;11.90;;;6.10;;
72095;SDS011;59968;51.084;16.748;2024-02-15T03:36:02;9.70;;;6.10;;
72095;SDS011;59968;51.084;16.748;2024-02-15T03:38:31;11.60;;;6.40;;
72095;SDS011;59968;51.084;16.748;2024-02-15T03:41:00;9.30;;;5.80;;
72095;SDS011;59968;51.084;16.748;2024-02-15T03:43:30;10.80;;;6.30;;
72095;SDS011;59968;51.084;16.748;2024-02-15T03:45:59;11.30;;;6.10;;
72095;SDS011;59968;51.084;16.748;2024-02-15T03:48:31;9.00;;;5.80;;
72095;SDS011;59968;51.084;16.748;2024-02-15T03:51:04;9.60;;;6.00;;
72095;SDS011;59968;51.084;16.748;2024-02-15T03:53:34;10.80;;;5.90;;
72095;SDS011;59968;51.084;16.748;2024-02-15T03:56:05;10.50;;;5.80;;
72095;SDS011;59968;51.084;16.748;2024-02-15T03:58:37;10.60;;;5.40;;
72095;SDS011;59968;51.084;16.748;2024-02-15T04:01:06;9.20;;;5.80;;
72095;SDS011;59968;51.084;16.748;2024-02-15T04:03:38;10.50;;;5.20;;
72095;SDS011;59968;51.084;16.748;2024-02-15T04:06:09;8.70;;;5.70;;
72095;SDS011;59968;51.084;16.748;2024-02-15T04:08:39;9.70;;;5.90;;
72095;SDS011;59968;51.084;16.748;2024-02-15T04:11:08;9.50;;;5.50;;
72095;SDS011;59968;51.084;16.748;2024-02-15T04:13:38;10.90;;;5.70;;
72095;SDS011;59968;51.084;16.748;2024-02-15T04:16:07;10.00;;;5.50;;
72095;SDS011;59968;51.084;16.748;2024-02-15T04:18:38;9.70;;;5.00;;
72095;SDS011;59968;51.084;16.748;2024-02-15T04:21:07;8.90;;;5.20;;
72095;SDS011;59968;51.084;16.748;2024-02-15T04:23:37;9.50;;;5.40;;
72095;SDS011;59968;51.084;16.748;2024-02-15T04:26:06;11.00;;;5.90;;
72095;SDS011;59968;51.084;16.748;2024-02-15T04:28:34;10.60;;;5.90;;
72095;SDS011;59968;51.084;16.748;2024-02-15T04:31:11;9.80;;;6.00;;
72095;SDS011;59968;51.084;16.748;2024-02-15T04:33:40;10.40;;;6.20;;
72095;SDS011;59968;51.084;16.748;2024-02-15T04:36:09;9.40;;;5.70;;
72095;SDS011;59968;51.084;16.748;2024-02-15T04:38:52;9.70;;;5.90;;
72095;SDS011;59968;51.084;16.748;2024-02-15T04:41:21;9.70;;;5.90;;
72095;SDS011;59968;51.084;16.748;2024-02-15T04:43:53;10.40;;;6.10;;
72095;SDS011;59968;51.084;16.748;2024-02-15T04:46:22;10.60;;;6.10;;
72095;SDS011;59968;51.084;16.748;2024-02-15T04:48:50;10.00;;;5.80;;
72095;SDS011;59968;51.084;16.748;2024-02-15T04:51:20;10.20;;;5.90;;
72095;SDS011;59968;51.084;16.748;2024-02-15T04:53:48;11.10;;;6.60;;
72095;SDS011;59968;51.084;16.748;2024-02-15T04:56:20;9.10;;;5.80;;
72095;SDS011;59968;51.084;16.748;2024-02-15T04:58:49;10.00;;;5.80;;
72095;SDS011;59968;51.084;16.748;2024-02-15T05:01:19;11.40;;;6.50;;
72095;SDS011;59968;51.084;16.748;2024-02-15T05:03:48;12.20;;;7.00;;
72095;SDS011;59968;51.084;16.748;2024-02-15T05:06:34;11.30;;;6.30;;
72095;SDS011;59968;51.084;16.748;2024-02-15T05:09:05;10.00;;;5.60;;
72095;SDS011;59968;51.084;16.748;2024-02-15T05:11:41;9.50;;;6.00;;
72095;SDS011;59968;51.084;16.748;2024-02-15T05:14:15;10.20;;;5.60;;
72095;SDS011;59968;51.084;16.748;2024-02-15T05:16:52;12.20;;;6.10;;
72095;SDS011;59968;51.084;16.748;2024-02-15T05:19:21;10.00;;;5.30;;
72095;SDS011;59968;51.084;16.748;2024-02-15T05:21:50;11.60;;;6.70;;
72095;SDS011;59968;51.084;16.748;2024-02-15T05:24:19;11.80;;;6.30;;
72095;SDS011;59968;51.084;16.748;2024-02-15T05:26:49;10.90;;;6.20;;
72095;SDS011;59968;51.084;16.748;2024-02-15T05:29:18;11.30;;;6.20;;
72095;SDS011;59968;51.084;16.748;2024-02-15T05:31:49;11.30;;;6.60;;
72095;SDS011;59968;51.084;16.748;2024-02-15T05:34:20;11.40;;;5.90;;
72095;SDS011;59968;51.084;16.748;2024-02-15T05:36:49;11.20;;;6.60;;
72095;SDS011;59968;51.084;16.748;2024-02-15T05:39:18;10.80;;;5.90;;
72095;SDS011;59968;51.084;16.748;2024-02-15T05:41:50;11.90;;;6.50;;
72095;SDS011;59968;51.084;16.748;2024-02-15T05:44:18;10.20;;;6.10;;
72095;SDS011;59968;51.084;16.748;2024-02-15T05:46:49;12.40;;;6.10;;
72095;SDS011;59968;51.084;16.748;2024-02-15T05:49:18;11.30;;;6.70;;
72095;SDS011;59968;51.084;16.748;2024-02-15T05:51:50;12.10;;;6.20;;
72095;SDS011;59968;51.084;16.748;2024-02-15T05:54:19;12.90;;;6.50;;
72095;SDS011;59968;51.084;16.748;2024-02-15T05:56:51;11.60;;;6.20;;
72095;SDS011;59968;51.084;16.748;2024-02-15T05:59:21;10.70;;;6.20;;
72095;SDS011;59968;51.084;16.748;2024-02-15T06:01:49;10.50;;;5.80;;
72095;SDS011;59968;51.084;16.748;2024-02-15T06:04:18;11.70;;;6.40;;
72095;SDS011;59968;51.084;16.748;2024-02-15T06:06:47;10.10;;;5.60;;
72095;SDS011;59968;51.084;16.748;2024-02-15T06:09:19;11.50;;;6.10;;
72095;SDS011;59968;51.084;16.748;2024-02-15T06:11:51;11.30;;;6.60;;
72095;SDS011;59968;51.084;16.748;2024-02-15T06:14:24;11.60;;;6.00;;
72095;SDS011;59968;51.084;16.748;2024-02-15T06:16:52;10.60;;;6.20;;
72095;SDS011;59968;51.084;16.748;2024-02-15T06:19:23;11.70;;;6.40;;
72095;SDS011;59968;51.084;16.748;2024-02-15T06:21:53;10.60;;;6.40;;
72095;SDS011;59968;51.084;16.748;2024-02-15T06:24:22;10.30;;;6.50;;
72095;SDS011;59968;51.084;16.748;2024-02-15T06:26:52;10.30;;;6.50;;
72095;SDS011;59968;51.084;16.748;2024-02-15T06:29:28;9.80;;;5.60;;
72095;SDS011;59968;51.084;16.748;2024-02-15T06:32:16;11.50;;;6.00;;
72095;SDS011;59968;51.084;16.748;2024-02-15T06:35:04;10.20;;;6.20;;
72095;SDS011;59968;51.084;16.748;2024-02-15T06:37:52;9.80;;;5.80;;
72095;SDS011;59968;51.084;16.748;2024-02-15T06:40:40;8.70;;;5.30;;
72095;SDS011;59968;51.084;16.748;2024-02-15T06:43:10;10.50;;;5.70;;
72095;SDS011;59968;51.084;16.748;2024-02-15T06:45:40;10.70;;;6.30;;
72095;SDS011;59968;51.084;16.748;2024-02-15T06:48:16;12.00;;;6.70;;
72095;SDS011;59968;51.084;16.748;2024-02-15T06:50:47;11.40;;;6.30;;
72095;SDS011;59968;51.084;16.748;2024-02-15T06:53:17;11.30;;;6.60;;
72095;SDS011;59968;51.084;16.748;2024-02-15T06:55:48;11.20;;;6.60;;
72095;SDS011;59968;51.084;16.748;2024-02-15T06:58:17;14.00;;;6.40;;
72095;SDS011;59968;51.084;16.748;2024-02-15T07:00:47;11.40;;;6.50;;
72095;SDS011;59968;51.084;16.748;2024-02-15T07:03:27;12.50;;;6.30;;
72095;SDS011;59968;51.084;16.748;2024-02-15T07:05:58;11.20;;;5.90;;
72095;SDS011;59968;51.084;16.748;2024-02-15T07:08:31;10.90;;;6.50;;
72095;SDS011;59968;51.084;16.748;2024-02-15T07:11:00;11.60;;;6.30;;
72095;SDS011;59968;51.084;16.748;2024-02-15T07:13:32;11.60;;;6.30;;
72095;SDS011;59968;51.084;16.748;2024-02-15T07:16:02;11.40;;;6.70;;
72095;SDS011;59968;51.084;16.748;2024-02-15T07:18:36;11.20;;;6.30;;
72095;SDS011;59968;51.084;16.748;2024-02-15T07:21:05;11.00;;;5.90;;
72095;SDS011;59968;51.084;16.748;2024-02-15T07:23:39;10.40;;;6.00;;
72095;SDS011;59968;51.084;16.748;2024-02-15T07:26:10;11.00;;;6.10;;
72095;SDS011;59968;51.084;16.748;2024-02-15T07:28:41;11.10;;;6.10;;
72095;SDS011;59968;51.084;16.748;2024-02-15T07:31:11;11.60;;;7.00;;
72095;SDS011;59968;51.084;16.748;2024-02-15T07:33:41;10.80;;;6.30;;
72095;SDS011;59968;51.084;16.748;2024-02-15T07:36:12;11.10;;;6.50;;
72095;SDS011;59968;51.084;16.748;2024-02-15T07:38:41;11.40;;;6.30;;
72095;SDS011;59968;51.084;16.748;2024-02-15T07:41:11;12.90;;;6.40;;
72095;SDS011;59968;51.084;16.748;2024-02-15T07:43:42;15.60;;;7.60;;
72095;SDS011;59968;51.084;16.748;2024-02-15T07:46:14;12.30;;;6.50;;
72095;SDS011;59968;51.084;16.748;2024-02-15T07:48:45;12.60;;;6.90;;
72095;SDS011;59968;51.084;16.748;2024-02-15T07:51:15;13.50;;;7.10;;
72095;SDS011;59968;51.084;16.748;2024-02-15T07:53:47;13.90;;;8.00;;
72095;SDS011;59968;51.084;16.748;2024-02-15T07:56:18;12.20;;;6.30;;
72095;SDS011;59968;51.084;16.748;2024-02-15T07:58:48;12.00;;;6.60;;
72095;SDS011;59968;51.084;16.748;2024-02-15T08:01:21;13.40;;;7.00;;
72095;SDS011;59968;51.084;16.748;2024-02-15T08:03:53;12.10;;;7.30;;
72095;SDS011;59968;51.084;16.748;2024-02-15T08:06:23;15.70;;;7.20;;
72095;SDS011;59968;51.084;16.748;2024-02-15T08:08:57;12.90;;;6.90;;
72095;SDS011;59968;51.084;16.748;2024-02-15T08:11:26;15.00;;;7.20;;
72095;SDS011;59968;51.084;16.748;2024-02-15T08:13:55;13.00;;;8.10;;
72095;SDS011;59968;51.084;16.748;2024-02-15T08:16:28;13.10;;;7.50;;
72095;SDS011;59968;51.084;16.748;2024-02-15T08:18:57;12.40;;;7.80;;
72095;SDS011;59968;51.084;16.748;2024-02-15T08:21:27;13.60;;;7.10;;
72095;SDS011;59968;51.084;16.748;2024-02-15T08:23:58;11.60;;;6.10;;
72095;SDS011;59968;51.084;16.748;2024-02-15T08:26:29;14.80;;;7.40;;
72095;SDS011;59968;51.084;16.748;2024-02-15T08:28:58;11.80;;;6.70;;
72095;SDS011;59968;51.084;16.748;2024-02-15T08:31:27;12.20;;;7.10;;
72095;SDS011;59968;51.084;16.748;2024-02-15T08:33:56;10.80;;;6.00;;
72095;SDS011;59968;51.084;16.748;2024-02-15T08:36:26;11.90;;;6.50;;
72095;SDS011;59968;51.084;16.748;2024-02-15T08:38:56;12.50;;;7.00;;
72095;SDS011;59968;51.084;16.748;2024-02-15T08:41:25;12.40;;;6.30;;
72095;SDS011;59968;51.084;16.748;2024-02-15T08:43:55;11.70;;;6.70;;
72095;SDS011;59968;51.084;16.748;2024-02-15T08:46:29;11.70;;;6.50;;
72095;SDS011;59968;51.084;16.748;2024-02-15T08:48:59;13.10;;;6.50;;
72095;SDS011;59968;51.084;16.748;2024-02-15T08:51:29;11.60;;;6.60;;
72095;SDS011;59968;51.084;16.748;2024-02-15T08:53:59;11.50;;;6.40;;
72095;SDS011;59968;51.084;16.748;2024-02-15T08:56:28;10.80;;;6.30;;
72095;SDS011;59968;51.084;16.748;2024-02-15T08:58:57;10.50;;;6.30;;
72095;SDS011;59968;51.084;16.748;2024-02-15T09:01:30;12.70;;;6.20;;
72095;SDS011;59968;51.084;16.748;2024-02-15T09:03:58;10.90;;;5.70;;
72095;SDS011;59968;51.084;16.748;2024-02-15T09:06:27;9.60;;;5.90;;
72095;SDS011;59968;51.084;16.748;2024-02-15T09:08:56;9.80;;;5.20;;
72095;SDS011;59968;51.084;16.748;2024-02-15T09:11:29;9.10;;;5.40;;
72095;SDS011;59968;51.084;16.748;2024-02-15T09:13:58;11.80;;;6.10;;
72095;SDS011;59968;51.084;16.748;2024-02-15T09:16:27;9.40;;;4.90;;
72095;SDS011;59968;51.084;16.748;2024-02-15T09:18:56;9.50;;;5.00;;
72095;SDS011;59968;51.084;16.748;2024-02-15T09:21:29;9.20;;;5.00;;
72095;SDS011;59968;51.084;16.748;2024-02-15T09:24:01;9.00;;;5.20;;
72095;SDS011;59968;51.084;16.748;2024-02-15T09:26:29;9.80;;;5.30;;
72095;SDS011;59968;51.084;16.748;2024-02-15T09:28:58;8.60;;;4.80;;
72095;SDS011;59968;51.084;16.748;2024-02-15T09:31:27;8.90;;;5.10;;
72095;SDS011;59968;51.084;16.748;2024-02-15T09:33:56;10.30;;;5.50;;
72095;SDS011;59968;51.084;16.748;2024-02-15T09:36:27;9.60;;;5.50;;
72095;SDS011;59968;51.084;16.748;2024-02-15T09:38:57;10.90;;;5.10;;
72095;SDS011;59968;51.084;16.748;2024-02-15T09:41:27;9.00;;;5.50;;
72095;SDS011;59968;51.084;16.748;2024-02-15T09:43:57;10.00;;;5.80;;
72095;SDS011;59968;51.084;16.748;2024-02-15T09:46:26;12.90;;;5.90;;
72095;SDS011;59968;51.084;16.748;2024-02-15T09:48:57;9.90;;;5.10;;
72095;SDS011;59968;51.084;16.748;2024-02-15T09:51:27;10.30;;;5.00;;
72095;SDS011;59968;51.084;16.748;2024-02-15T09:53:59;9.30;;;5.10;;
72095;SDS011;59968;51.084;16.748;2024-02-15T09:56:30;9.60;;;5.40;;
72095;SDS011;59968;51.084;16.748;2024-02-15T09:59:01;11.80;;;6.30;;
72095;SDS011;59968;51.084;16.748;2024-02-15T10:01:31;9.70;;;5.50;;
72095;SDS011;59968;51.084;16.748;2024-02-15T10:04:00;13.20;;;5.60;;
72095;SDS011;59968;51.084;16.748;2024-02-15T10:06:35;9.30;;;4.90;;
72095;SDS011;59968;51.084;16.748;2024-02-15T10:11:54;10.80;;;5.30;;
72095;SDS011;59968;51.084;16.748;2024-02-15T10:14:30;9.50;;;5.10;;
72095;SDS011;59968;51.084;16.748;2024-02-15T10:17:07;11.10;;;5.80;;
72095;SDS011;59968;51.084;16.748;2024-02-15T10:19:40;11.80;;;5.00;;
72095;SDS011;59968;51.084;16.748;2024-02-15T10:22:12;10.50;;;5.20;;
72095;SDS011;59968;51.084;16.748;2024-02-15T10:24:43;7.70;;;4.60;;
72095;SDS011;59968;51.084;16.748;2024-02-15T10:27:12;8.20;;;4.10;;
72095;SDS011;59968;51.084;16.748;2024-02-15T10:29:44;9.60;;;4.70;;
72095;SDS011;59968;51.084;16.748;2024-02-15T10:32:14;9.20;;;4.50;;
72095;SDS011;59968;51.084;16.748;2024-02-15T10:34:43;8.80;;;5.00;;
72095;SDS011;59968;51.084;16.748;2024-02-15T10:37:15;9.80;;;5.30;;
72095;SDS011;59968;51.084;16.748;2024-02-15T10:39:45;9.10;;;4.20;;
72095;SDS011;59968;51.084;16.748;2024-02-15T10:42:15;9.40;;;4.80;;
72095;SDS011;59968;51.084;16.748;2024-02-15T10:44:46;7.70;;;3.90;;
72095;SDS011;59968;51.084;16.748;2024-02-15T10:47:17;8.00;;;4.40;;
72095;SDS011;59968;51.084;16.748;2024-02-15T10:49:47;7.30;;;4.00;;
72095;SDS011;59968;51.084;16.748;2024-02-15T10:52:17;7.70;;;3.90;;
72095;SDS011;59968;51.084;16.748;2024-02-15T10:54:52;7.40;;;4.20;;
72095;SDS011;59968;51.084;16.748;2024-02-15T10:57:31;7.30;;;3.70;;
72095;SDS011;59968;51.084;16.748;2024-02-15T11:00:01;7.30;;;3.80;;
72095;SDS011;59968;51.084;16.748;2024-02-15T11:02:42;6.60;;;3.40;;
72095;SDS011;59968;51.084;16.748;2024-02-15T11:05:21;6.10;;;3.80;;
72095;SDS011;59968;51.084;16.748;2024-02-15T11:07:52;8.00;;;3.90;;
72095;SDS011;59968;51.084;16.748;2024-02-15T11:10:24;7.10;;;4.10;;
72095;SDS011;59968;51.084;16.748;2024-02-15T11:12:55;8.50;;;4.70;;
72095;SDS011;59968;51.084;16.748;2024-02-15T11:18:10;9.10;;;4.50;;
72095;SDS011;59968;51.084;16.748;2024-02-15T11:23:11;8.10;;;3.90;;
72095;SDS011;59968;51.084;16.748;2024-02-15T11:25:49;7.60;;;3.80;;
72095;SDS011;59968;51.084;16.748;2024-02-15T11:28:38;7.80;;;4.30;;
72095;SDS011;59968;51.084;16.748;2024-02-15T11:31:07;10.00;;;4.30;;
72095;SDS011;59968;51.084;16.748;2024-02-15T11:33:37;8.60;;;4.00;;
72095;SDS011;59968;51.084;16.748;2024-02-15T11:36:08;7.60;;;4.10;;
72095;SDS011;59968;51.084;16.748;2024-02-15T11:38:39;8.90;;;4.00;;
72095;SDS011;59968;51.084;16.748;2024-02-15T11:41:10;7.50;;;4.30;;
72095;SDS011;59968;51.084;16.748;2024-02-15T11:46:14;8.00;;;4.20;;
72095;SDS011;59968;51.084;16.748;2024-02-15T11:48:46;6.60;;;3.90;;
72095;SDS011;59968;51.084;16.748;2024-02-15T11:51:33;7.20;;;3.40;;
72095;SDS011;59968;51.084;16.748;2024-02-15T11:54:12;6.00;;;3.20;;
72095;SDS011;59968;51.084;16.748;2024-02-15T11:59:17;6.60;;;3.60;;
72095;SDS011;59968;51.084;16.748;2024-02-15T12:02:01;6.50;;;3.40;;
72095;SDS011;59968;51.084;16.748;2024-02-15T12:04:50;5.10;;;3.00;;
72095;SDS011;59968;51.084;16.748;2024-02-15T12:07:38;4.50;;;3.10;;
72095;SDS011;59968;51.084;16.748;2024-02-15T12:10:25;5.00;;;2.90;;
72095;SDS011;59968;51.084;16.748;2024-02-15T12:13:17;5.60;;;3.00;;
72095;SDS011;59968;51.084;16.748;2024-02-15T12:16:05;5.50;;;3.20;;
72095;SDS011;59968;51.084;16.748;2024-02-15T12:18:53;6.70;;;3.50;;
72095;SDS011;59968;51.084;16.748;2024-02-15T12:21:24;5.60;;;3.50;;
72095;SDS011;59968;51.084;16.748;2024-02-15T12:23:55;5.60;;;3.30;;
72095;SDS011;59968;51.084;16.748;2024-02-15T12:26:25;5.30;;;3.40;;
72095;SDS011;59968;51.084;16.748;2024-02-15T12:28:55;6.70;;;3.50;;
72095;SDS011;59968;51.084;16.748;2024-02-15T12:31:26;6.40;;;3.70;;
72095;SDS011;59968;51.084;16.748;2024-02-15T12:34:00;7.80;;;3.90;;
72095;SDS011;59968;51.084;16.748;2024-02-15T12:36:30;6.90;;;3.70;;
72095;SDS011;59968;51.084;16.748;2024-02-15T12:39:01;5.90;;;3.10;;
72095;SDS011;59968;51.084;16.748;2024-02-15T12:41:49;6.00;;;3.30;;
72095;SDS011;59968;51.084;16.748;2024-02-15T12:44:19;5.70;;;3.30;;
72095;SDS011;59968;51.084;16.748;2024-02-15T12:46:54;5.80;;;3.80;;
72095;SDS011;59968;51.084;16.748;2024-02-15T12:51:53;5.70;;;3.20;;
72095;SDS011;59968;51.084;16.748;2024-02-15T12:54:42;6.30;;;3.30;;
72095;SDS011;59968;51.084;16.748;2024-02-15T12:57:12;4.50;;;2.60;;
72095;SDS011;59968;51.084;16.748;2024-02-15T12:59:45;5.80;;;3.20;;
72095;SDS011;59968;51.084;16.748;2024-02-15T13:02:14;5.20;;;2.90;;
72095;SDS011;59968;51.084;16.748;2024-02-15T13:04:43;5.60;;;3.10;;
72095;SDS011;59968;51.084;16.748;2024-02-15T13:07:12;5.90;;;3.10;;
72095;SDS011;59968;51.084;16.748;2024-02-15T13:09:42;6.60;;;3.70;;
72095;SDS011;59968;51.084;16.748;2024-02-15T13:12:12;6.20;;;3.50;;
72095;SDS011;59968;51.084;16.748;2024-02-15T13:14:41;5.90;;;3.20;;
72095;SDS011;59968;51.084;16.748;2024-02-15T13:17:09;6.50;;;3.60;;
72095;SDS011;59968;51.084;16.748;2024-02-15T13:19:38;5.30;;;3.10;;
72095;SDS011;59968;51.084;16.748;2024-02-15T13:22:06;7.00;;;3.60;;
72095;SDS011;59968;51.084;16.748;2024-02-15T13:24:37;6.10;;;3.60;;
72095;SDS011;59968;51.084;16.748;2024-02-15T13:27:07;6.10;;;3.40;;
72095;SDS011;59968;51.084;16.748;2024-02-15T13:29:40;6.60;;;3.30;;
72095;SDS011;59968;51.084;16.748;2024-02-15T13:32:10;5.20;;;3.00;;
72095;SDS011;59968;51.084;16.748;2024-02-15T13:34:40;5.60;;;3.30;;
72095;SDS011;59968;51.084;16.748;2024-02-15T13:37:10;5.90;;;3.30;;
72095;SDS011;59968;51.084;16.748;2024-02-15T13:39:39;4.60;;;2.90;;
72095;SDS011;59968;51.084;16.748;2024-02-15T13:42:11;6.20;;;3.20;;
72095;SDS011;59968;51.084;16.748;2024-02-15T13:44:40;5.70;;;3.20;;
72095;SDS011;59968;51.084;16.748;2024-02-15T13:47:09;7.00;;;3.10;;
72095;SDS011;59968;51.084;16.748;2024-02-15T13:49:39;6.30;;;3.80;;
72095;SDS011;59968;51.084;16.748;2024-02-15T13:52:08;6.80;;;3.70;;
72095;SDS011;59968;51.084;16.748;2024-02-15T13:54:39;5.50;;;3.30;;
72095;SDS011;59968;51.084;16.748;2024-02-15T13:57:08;4.60;;;2.80;;
72095;SDS011;59968;51.084;16.748;2024-02-15T13:59:37;4.60;;;3.00;;
72095;SDS011;59968;51.084;16.748;2024-02-15T14:02:07;5.90;;;3.50;;
72095;SDS011;59968;51.084;16.748;2024-02-15T14:04:36;6.00;;;3.50;;
72095;SDS011;59968;51.084;16.748;2024-02-15T14:07:06;5.50;;;3.20;;
72095;SDS011;59968;51.084;16.748;2024-02-15T14:09:36;4.90;;;2.90;;
72095;SDS011;59968;51.084;16.748;2024-02-15T14:12:05;6.00;;;3.00;;
72095;SDS011;59968;51.084;16.748;2024-02-15T14:14:34;4.80;;;2.80;;
72095;SDS011;59968;51.084;16.748;2024-02-15T14:17:02;4.60;;;2.80;;
72095;SDS011;59968;51.084;16.748;2024-02-15T14:19:31;5.00;;;2.80;;
72095;SDS011;59968;51.084;16.748;2024-02-15T14:22:00;6.40;;;3.20;;
72095;SDS011;59968;51.084;16.748;2024-02-15T14:24:30;6.30;;;3.60;;
72095;SDS011;59968;51.084;16.748;2024-02-15T14:26:58;6.10;;;3.50;;
72095;SDS011;59968;51.084;16.748;2024-02-15T14:29:27;5.90;;;3.00;;
72095;SDS011;59968;51.084;16.748;2024-02-15T14:32:01;5.60;;;3.50;;
72095;SDS011;59968;51.084;16.748;2024-02-15T14:34:48;6.50;;;3.50;;
72095;SDS011;59968;51.084;16.748;2024-02-15T14:37:19;5.90;;;3.50;;
72095;SDS011;59968;51.084;16.748;2024-02-15T14:39:49;6.60;;;4.10;;
72095;SDS011;59968;51.084;16.748;2024-02-15T14:42:18;6.90;;;3.80;;
72095;SDS011;59968;51.084;16.748;2024-02-15T14:44:46;7.90;;;4.40;;
72095;SDS011;59968;51.084;16.748;2024-02-15T14:47:15;7.10;;;4.20;;
72095;SDS011;59968;51.084;16.748;2024-02-15T14:49:44;7.20;;;3.80;;
72095;SDS011;59968;51.084;16.748;2024-02-15T14:52:13;5.40;;;3.30;;
72095;SDS011;59968;51.084;16.748;2024-02-15T14:54:43;5.60;;;3.30;;
72095;SDS011;59968;51.084;16.748;2024-02-15T14:57:11;6.50;;;3.60;;
72095;SDS011;59968;51.084;16.748;2024-02-15T14:59:41;6.20;;;3.20;;
72095;SDS011;59968;51.084;16.748;2024-02-15T15:02:11;6.20;;;3.10;;
72095;SDS011;59968;51.084;16.748;2024-02-15T15:04:40;6.50;;;3.60;;